Portada
METAR-TAF:

METAR-TAF

Aeroports :

Theveste, Algèria

latitud: 35-29N, longitud: 008-08E, altitud: 813 m

Observació

L'informe es va fer fa 34 minuts, a les 12:00 UTC
Vent 20 kt del Oest amb ràfegues de 30 kt
Temperatura 14°C
Humitat 51%
Pressió 1009 hPa
Visibilitat 10 km o més
Núvols disperses a una alçada de 3300 ft

METAR: DABS 131200Z 28020G30KT 9999 SCT033 14/04 Q1009

Hora: 13:34 (12:34 UTC)

Pronòstic

L'informe es va fer fa 1 hora i 34 minuts, a les 11:00 UTC
Pronòstic vàlid del 13 a les 12 UTC al 14 a les 12 UTC
Vent 12 kt del Oest
Visibilitat 10 km o més
Núvols disperses a una alçada de 3300 ft
Probabilitat 40% :
Temporalment
l' 13 a les 12 UTC al 13 a les 20 UTC
Vent 15 kt del Oest amb ràfegues de 25 kt
Escasses núvols a una alçada de 2600 ft, Cumulus congestus.
Escasses núvols a una alçada de 3000 ft, Cumulonimbus.

TAF: DABS 131100Z 1312/1412 27012KT 9999 SCT033 PROB40 TEMPO 1312/1320 27015G25KT FEW026TCU FEW030CB

Observacions i pronòstics meteorològics de més de 4000 aeroports (METAR i TAF).

Les estacions disponibles són els punts grocs i vermells al mapa.

Posi el ratolí al punt desitjat per veure el nom de l'estació.

Feu clic per veure les observacions i els pronòstics meteorològics.

Per canviar el mapa: feu clic els botons verds amb una creu de color negre per apropar; al botó verd amb un guió per allunyar la imatge; o en les fletxes verdes per a mapes adjacents.


METAR-TAF: